ADDS METAR Data INFO
IDs: Format: Raw Decoded Include TAF

Data at: 0855 UTC 19 Jun 2018

K7BM 190829Z AUTO 24008KT 10SM CLR 15/M01 A3033 RMK AO2
K7BM 190812Z AUTO 25009KT 10SM CLR 16/M01 A3033 RMK AO2 LTG DSNT NE
K7BM 190754Z AUTO 25011KT 10SM CLR 16/M02 A3033 RMK AO2
K7BM 190730Z AUTO 25015KT 10SM CLR 16/M02 A3034 RMK AO2
K7BM 190712Z AUTO 25013KT 10SM CLR 17/M02 A3035 RMK AO2 LTG DSNT NE
K7BM 190654Z AUTO 25014KT 10SM CLR 17/M01 A3035 RMK AO2 LTG DSNT NE
K7BM 190630Z AUTO 25017G21KT 10SM CLR 17/M01 A3035 RMK AO2
K7BM 190612Z AUTO 25015KT 10SM CLR 17/M01 A3035 RMK AO2
K7BM 190554Z AUTO 26013G18KT 10SM CLR 17/00 A3035 RMK AO2
K7BM 190530Z AUTO 25011KT 10SM CLR 17/00 A3037 RMK AO2
K7BM 190512Z AUTO 25012KT 10SM CLR 17/00 A3037 RMK AO2
K7BM 190454Z AUTO 25011G16KT 10SM CLR 17/00 A3037 RMK AO2
K7BM 190430Z AUTO 25012G15KT 10SM CLR 17/00 A3037 RMK AO2
K7BM 190412Z AUTO 25011G17KT 10SM CLR 18/00 A3037 RMK AO2
K7BM 190353Z AUTO 24012G18KT 10SM CLR 18/00 A3036 RMK AO2
K7BM 190330Z AUTO 25017G24KT 10SM CLR 19/00 A3035 RMK AO2 LTG DSNT NE
K7BM 190312Z AUTO 27015G26KT 240V310 10SM CLR 19/00 A3033 RMK AO2 LTG DSNT NE
K7BM 190254Z AUTO 27013G21KT 10SM CLR 20/00 A3033 RMK AO2
K7BM 190230Z AUTO 26011G18KT 250V310 10SM CLR 20/M01 A3033 RMK AO2 LTG DSNT NE
K7BM 190212Z AUTO 30010G19KT 280V340 10SM CLR 20/00 A3032 RMK AO2 LTG DSNT NE
K7BM 190154Z AUTO 30006KT 10SM CLR 21/M01 A3031 RMK AO2 LTG DSNT NE
K7BM 190130Z AUTO 27010G18KT 10SM CLR 22/M02 A3031 RMK AO2 LTG DSNT NE
K7BM 190112Z AUTO 28009G16KT 240V300 10SM CLR 23/M02 A3029 RMK AO2 LTG DSNT NE
K7BM 190054Z AUTO 29007G17KT 10SM CLR 23/M03 A3029 RMK AO2 LTG DSNT NE
K7BM 190030Z AUTO 00000KT 10SM SCT100 25/M03 A3029 RMK AO2
K7BM 190012Z AUTO 15004KT 10SM SCT100 24/M04 A3029 RMK AO2 LTG DSNT NE
K7BM 182354Z AUTO 00000KT 10SM BKN100 25/M05 A3029 RMK AO2
K7BM 182330Z AUTO 14004KT 10SM BKN100 25/M03 A3029 RMK AO2
K7BM 182312Z AUTO 26006KT 10SM BKN100 23/M03 A3029 RMK AO2
K7BM 182254Z AUTO 19005KT 10SM BKN090 23/M02 A3029 RMK AO2
K7BM 182230Z AUTO 17007G16KT 10SM BKN090 BKN110 23/M03 A3030 RMK AO2
K7BM 182212Z AUTO 00000KT 10SM BKN100 25/M01 A3030 RMK AO2
K7BM 182154Z AUTO 29005KT 10SM SCT100 23/M02 A3031 RMK AO2
K7BM 182130Z AUTO 20017G22KT 10SM SCT090 22/M02 A3029 RMK AO2
K7BM 182112Z AUTO 14010G21KT 10SM CLR 24/00 A3031 RMK AO2
K7BM 182054Z AUTO 22005KT 10SM CLR 24/00 A3031 RMK AO2
K7BM 182030Z AUTO 19007KT 10SM SCT075 SCT085 24/00 A3031 RMK AO2 LTG DSNT NE
K7BM 182012Z AUTO 18010G14KT 050V220 10SM SCT075 SCT085 24/01 A3031 RMK AO2
K7BM 181954Z AUTO 26008G16KT 220V310 10SM BKN075 BKN085 22/00 A3032 RMK AO2
K7BM 181930Z AUTO 24005G14KT 10SM SCT075 21/00 A3033 RMK AO2
K7BM 181912Z AUTO 00000KT 10SM SCT075 21/00 A3033 RMK AO2
K7BM 181853Z AUTO 26011G15KT 240V320 10SM SCT075 22/01 A3033 RMK AO2
K7BM 181829Z AUTO 25011G18KT 10SM SCT075 21/01 A3033 RMK AO2
K7BM 181812Z AUTO 25011G18KT 210V310 10SM SCT060 20/01 A3034 RMK AO2
K7BM 181753Z AUTO 25010G16KT 10SM BKN070 20/01 A3033 RMK AO2
K7BM 181730Z AUTO 28005KT 10SM BKN065 18/02 A3034 RMK AO2
K7BM 181712Z AUTO 24008KT 200V270 10SM SCT065 SCT075 19/02 A3034 RMK AO2
K7BM 181654Z AUTO 19006KT 10SM SCT065 18/08 A3034 RMK AO2
K7BM 181630Z AUTO 21003KT 10SM SCT031 SCT055 SCT065 18/03 A3033 RMK AO2
K7BM 181612Z AUTO 10003KT 10SM CLR 18/10 A3033 RMK AO2
K7BM 181554Z AUTO 16009KT 10SM SCT017 SCT060 17/10 A3033 RMK AO2
K7BM 181530Z AUTO 10003KT 10SM CLR 15/11 A3034 RMK AO2
K7BM 181512Z AUTO 13006KT 10SM SCT007 SCT060 15/11 A3034 RMK AO2
K7BM 181454Z AUTO 14003KT 10SM SCT005 SCT060 13/10 A3034 RMK AO2
K7BM 181430Z AUTO 10003KT 10SM CLR 13/10 A3034 RMK AO2
K7BM 181412Z AUTO 00000KT 10SM CLR 13/10 A3034 RMK AO2
K7BM 181354Z AUTO 00000KT 10SM CLR 13/10 A3033 RMK AO2
K7BM 181330Z AUTO 10003KT 10SM CLR 12/10 A3033 RMK AO2
K7BM 181312Z AUTO 00000KT 10SM SCT005 12/10 A3033 RMK AO2
K7BM 181254Z AUTO 00000KT 10SM SCT005 11/08 A3033 RMK AO2
K7BM 181230Z AUTO 00000KT 10SM CLR 11/09 A3033 RMK AO2
K7BM 181212Z AUTO 00000KT 10SM CLR 11/09 A3033 RMK AO2
K7BM 181154Z AUTO 00000KT 10SM CLR 11/08 A3033 RMK AO2
K7BM 181130Z AUTO 00000KT 10SM CLR 11/08 A3032 RMK AO2
K7BM 181112Z AUTO 00000KT 10SM CLR 11/08 A3031 RMK AO2
K7BM 181054Z AUTO 00000KT 10SM CLR 11/08 A3031 RMK AO2
K7BM 181030Z AUTO 00000KT 10SM CLR 12/07 A3031 RMK AO2
K7BM 181012Z AUTO 00000KT 10SM CLR 12/08 A3031 RMK AO2
K7BM 180954Z AUTO 00000KT 10SM CLR 12/07 A3031 RMK AO2
K7BM 180930Z AUTO 11003KT 10SM CLR 12/07 A3031 RMK AO2
K7BM 180912Z AUTO 11004KT 10SM CLR 12/07 A3030 RMK AO2
K7BM 180854Z AUTO 00000KT 10SM CLR 12/07 A3030 RMK AO2
K7BM 180830Z AUTO 00000KT 10SM CLR 13/07 A3029 RMK AO2
K7BM 180812Z AUTO 01003KT 10SM CLR 11/07 A3029 RMK AO2
K7BM 180754Z AUTO 36004KT 10SM CLR 11/07 A3029 RMK AO2
K7BM 180730Z AUTO 00000KT 10SM CLR 13/07 A3029 RMK AO2
K7BM 180712Z AUTO 00000KT 10SM SCT075 SCT080 13/07 A3029 RMK AO2
K7BM 180654Z AUTO 00000KT 10SM BKN085 BKN095 13/08 A3030 RMK AO2
K7BM 180630Z AUTO 14005KT 10SM OVC085 12/08 A3030 RMK AO2
K7BM 180612Z AUTO 13008KT 10SM SCT050 BKN080 OVC110 12/08 A3029 RMK AO2
K7BM 180553Z AUTO 24005KT 10SM -RA SCT050 OVC080 12/08 A3030 RMK AO2
K7BM 180529Z AUTO 26004KT 10SM -RA SCT033 BKN046 OVC070 12/08 A3031 RMK AO2
K7BM 180512Z AUTO 26007G16KT 10SM -RA SCT043 OVC050 12/08 A3031 RMK AO2 LTG DSNT N
K7BM 180452Z AUTO 27007KT 10SM -RA SCT039 BKN045 OVC050 12/08 A3031 RMK AO2
K7BM 180434Z AUTO 26010G19KT 10SM -RA SCT039 BKN048 OVC050 12/08 A3030 RMK AO2
K7BM 180411Z AUTO 23012G15KT 10SM -RA SCT034 BKN046 OVC060 12/08 A3030 RMK AO2 LTG DSNT W
K7BM 180352Z AUTO 25012G16KT 10SM -RA SCT029 BKN043 OVC050 12/08 A3029 RMK AO2
K7BM 180329Z AUTO 24010G19KT 190V260 10SM -RA OVC060 13/08 A3028 RMK AO2
K7BM 180311Z AUTO 26007G17KT 10SM RA SCT046 OVC060 13/08 A3028 RMK AO2
K7BM 180254Z AUTO 28013G19KT 10SM OVC060 14/07 A3027 RMK AO2
K7BM 180230Z AUTO 30008G16KT 270V330 10SM OVC060 13/07 A3026 RMK AO2 LTG DSNT NW
K7BM 180212Z AUTO 28008KT 10SM BKN065 OVC070 13/08 A3026 RMK AO2 LTG DSNT NE AND S
K7BM 180154Z AUTO 30005KT 10SM SCT040 BKN065 OVC075 13/08 A3026 RMK AO2
K7BM 180130Z AUTO 33007KT 7SM SCT004 SCT049 OVC075 13/11 A3025 RMK AO2 LTG DSNT NE
K7BM 180112Z AUTO 00000KT 3/4SM HZ SCT001 SCT060 OVC075 14/10 A3025 RMK AO2 VIS 1/4V5
K7BM 180054Z AUTO 25006KT 10SM VCTS SCT060 OVC075 15/08 A3025 RMK AO2 LTG DSNT NW
K7BM 180030Z AUTO 28006KT 10SM -DZ SCT049 BKN060 OVC070 13/10 A3024 RMK AO2 LTG DSNT E
K7BM 180012Z AUTO 25006KT 10SM -RA SCT037 BKN046 OVC070 13/10 A3024 RMK AO2 LTG DSNT NW
K7BM 172354Z AUTO 27003KT 3SM RA SCT026 BKN037 OVC045 13/08 A3025 RMK AO2 LTG DSNT NE S AND NW
K7BM 172330Z AUTO 24008KT 5SM /VCTSRA SCT025 BKN034 OVC050 13/10 A3025 RMK AO2 LTG DSNT N AND W
K7BM 172312Z AUTO 25009KT 10SM -VCTSRA SCT033 BKN048 OVC060 13/10 A3024 RMK AO2 LTG DSNT N AND NW
K7BM 172254Z AUTO 19006KT 10SM -TSRA SCT048 OVC060 14/10 A3024 RMK AO2 LTG DSNT N
K7BM 172230Z AUTO 22006KT 10SM TS SCT050 OVC060 15/09 A3024 RMK AO2 LTG DSNT SW THRU NE
K7BM 172212Z AUTO 28008KT 10SM TS SCT027 SCT038 OVC050 13/10 A3023 RMK AO2 LTG DSNT N AND SW
K7BM 172154Z AUTO 33004KT 3SM -TSRA SCT013 BKN022 OVC050 12/10 A3024 RMK AO2 LTG DSNT SW THRU N
K7BM 172130Z AUTO 31007G15KT 1 1/4SM +TSRA SCT015 BKN028 OVC036 12/10 A3023 RMK AO2 LTG DSNT N NE AND SW
K7BM 172112Z AUTO 34005KT 10SM -RA SCT028 OVC036 15/10 A3022 RMK AO2 LTG DSNT NW